Portada
METAR-TAF:

METAR-TAF

Aeroports :

Atenes, Grècia

Aeroport Internacional Elefthérios Venizelos

latitud: 37-56N, longitud: 023-56E, altitud: 94 m

Observació

L'informe es va fer fa 31 minuts, a les 00:20 UTC
Vent 8 kt del Sud/Sud-Est
Temperatura 11°C
Humitat 71%
Pressió 1016 hPa
Visibilitat 10 km o més
Escasses núvols a una alçada de 3000 ft

METAR: LGAV 200020Z 16008KT 9999 FEW030 11/06 Q1016 NOSIG

Hora: 02:51 (00:51 UTC)

Pronòstic

L'informe es va fer fa 1 hora i 51 minuts, a les 23:00 UTC
Pronòstic vàlid del 20 a les 00 UTC al 20 a les 24 UTC
Vent 5 kt amb direcció variable
Visibilitat 10 km o més
Escasses núvols a una alçada de 2500 ft
Evolucionant progressivament
l' 20 a les 10 UTC al 20 a les 12 UTC
Vent 16 kt del Sud/Sud-Oest
Núvols disperses a una alçada de 2500 ft

TAF: LGAV 192300Z 2000/2024 VRB05KT 9999 FEW025 BECMG 2010/2012 21016KT SCT025

Observacions i pronòstics meteorològics de més de 4000 aeroports (METAR i TAF).

Les estacions disponibles són els punts grocs i vermells al mapa.

Posi el ratolí al punt desitjat per veure el nom de l'estació.

Feu clic per veure les observacions i els pronòstics meteorològics.

Per canviar el mapa: feu clic els botons verds amb una creu de color negre per apropar; al botó verd amb un guió per allunyar la imatge; o en les fletxes verdes per a mapes adjacents.


METAR-TAF: